Time;durP1;ratioP1;P1;durP2;ratioP2;P2;SDS_P1;SDS_P2;PMS_P1;PMS_P2;Temp;Humidity;BMP_temperature;BMP_pressure;BME280_temperature;BME280_humidity;BME280_pressure;Samples;Min_cycle;Max_cycle;Signal;HPM_P1;HPM_P2
2023/10/20 00:00:29;;;;;;;58.20;35.10;;;;;;;13.58;57.75;98945.00;108201;1254;60453;-64
2023/10/20 00:02:56;;;;;;;59.20;36.30;;;;;;;13.51;57.94;98941.92;108125;1253;73116;-65
2023/10/20 00:05:24;;;;;;;57.80;36.90;;;;;;;13.62;57.78;98942.27;108136;1253;70621;-66
2023/10/20 00:07:53;;;;;;;53.40;34.90;;;;;;;13.72;57.36;98940.14;108111;1257;72659;-65
2023/10/20 00:10:20;;;;;;;59.50;37.10;;;;;;;13.76;57.42;98933.14;108080;1253;60880;-66
2023/10/20 00:12:48;;;;;;;61.70;37.30;;;;;;;13.79;57.25;98931.92;108187;1253;60187;-65
2023/10/20 00:15:17;;;;;;;69.20;37.80;;;;;;;13.45;58.10;98933.34;108180;1252;72063;-66
2023/10/20 00:17:47;;;;;;;63.50;38.20;;;;;;;13.34;58.59;98932.84;108038;1253;70061;-65
2023/10/20 00:20:15;;;;;;;63.50;37.20;;;;;;;13.31;58.73;98931.31;108221;1253;72670;-65
2023/10/20 00:22:42;;;;;;;63.70;37.00;;;;;;;13.53;58.37;98927.85;108172;1254;60452;-65
2023/10/20 00:25:12;;;;;;;66.80;39.80;;;;;;;13.49;58.49;98922.84;108258;1253;59487;-66
2023/10/20 00:27:41;;;;;;;62.80;37.50;;;;;;;13.48;58.63;98915.36;108200;1257;75350;-64
2023/10/20 00:30:09;;;;;;;65.70;36.70;;;;;;;13.53;58.54;98921.65;108243;1253;70105;-66
2023/10/20 00:32:40;;;;;;;56.90;36.40;;;;;;;13.58;58.49;98919.77;108124;1253;71203;-66
2023/10/20 00:35:09;;;;;;;59.30;37.10;;;;;;;13.61;58.43;98921.13;108139;1254;59460;-66
2023/10/20 00:37:37;;;;;;;58.70;34.50;;;;;;;13.63;58.45;98923.50;108256;1253;60027;-66
2023/10/20 00:40:08;;;;;;;60.80;36.50;;;;;;;13.85;58.09;98910.98;108115;1253;72518;-65
2023/10/20 00:42:36;;;;;;;62.50;36.30;;;;;;;13.94;57.78;98906.51;107970;1253;69178;-66
2023/10/20 00:45:04;;;;;;;65.30;36.00;;;;;;;13.94;57.88;98910.01;107884;1257;72675;-66
2023/10/20 00:47:32;;;;;;;64.10;36.30;;;;;;;14.04;57.69;98905.23;108044;1253;59896;-66
2023/10/20 00:50:00;;;;;;;64.80;37.80;;;;;;;14.26;57.25;98900.72;108246;1253;59928;-66
2023/10/20 00:52:27;;;;;;;64.10;39.10;;;;;;;14.32;57.13;98896.74;108069;1255;72959;-66
2023/10/20 00:54:55;;;;;;;56.70;32.60;;;;;;;14.03;57.83;98897.36;108159;1253;70626;-65
2023/10/20 00:57:22;;;;;;;68.50;41.30;;;;;;;14.15;57.68;98897.56;108037;1257;72471;-66
2023/10/20 00:59:50;;;;;;;68.50;41.50;;;;;;;14.37;57.25;98892.84;108075;1253;60840;-66
2023/10/20 01:02:18;;;;;;;69.50;42.00;;;;;;;14.33;57.36;98885.89;107964;1254;59752;-66
2023/10/20 01:04:46;;;;;;;65.70;41.10;;;;;;;14.36;57.37;98886.55;108141;1255;72792;-66
2023/10/20 01:07:14;;;;;;;68.90;39.90;;;;;;;14.15;57.80;98883.54;108172;1258;69863;-66
2023/10/20 01:09:42;;;;;;;60.10;38.80;;;;;;;14.35;57.47;98880.27;108030;1253;71638;-66
2023/10/20 01:12:10;;;;;;;65.00;39.50;;;;;;;14.44;57.20;98881.20;108132;1253;60824;-66
2023/10/20 01:14:37;;;;;;;63.20;40.00;;;;;;;14.36;57.30;98877.52;108163;1253;60025;-66
2023/10/20 01:17:05;;;;;;;64.60;39.80;;;;;;;14.24;57.81;98872.62;107954;1254;73060;-67
2023/10/20 01:19:32;;;;;;;65.60;38.00;;;;;;;14.07;58.22;98876.09;108086;1255;70277;-66
2023/10/20 01:22:00;;;;;;;69.60;40.40;;;;;;;13.79;59.06;98879.70;107838;1257;71832;-66
2023/10/20 01:24:27;;;;;;;64.20;39.40;;;;;;;13.71;59.39;98873.40;108167;1254;60483;-66
2023/10/20 01:26:55;;;;;;;63.60;38.20;;;;;;;13.73;59.39;98873.26;108135;1254;60447;-67
2023/10/20 01:29:23;;;;;;;61.40;39.50;;;;;;;13.79;59.32;98866.65;108019;1257;74193;-66
2023/10/20 01:31:51;;;;;;;65.40;40.00;;;;;;;13.78;59.42;98864.21;108166;1254;69449;-66
2023/10/20 01:34:19;;;;;;;62.60;39.20;;;;;;;13.74;59.78;98869.98;108210;1253;71062;-66
2023/10/20 01:36:46;;;;;;;61.80;38.20;;;;;;;13.81;59.63;98865.62;107960;1253;60241;-67
2023/10/20 01:39:15;;;;;;;62.10;39.30;;;;;;;13.79;59.66;98868.39;108144;1254;60265;-66
2023/10/20 01:41:43;;;;;;;63.80;39.10;;;;;;;13.72;60.02;98869.23;108187;1254;73772;-66
2023/10/20 01:44:11;;;;;;;67.70;39.80;;;;;;;13.68;60.15;98870.23;108081;1257;70330;-66
2023/10/20 01:46:39;;;;;;;64.60;37.70;;;;;;;13.72;60.21;98865.33;108071;1254;72433;-66
2023/10/20 01:49:06;;;;;;;68.30;40.80;;;;;;;13.85;60.00;98863.06;108134;1257;60451;-65
2023/10/20 01:51:34;;;;;;;64.10;39.40;;;;;;;13.84;60.02;98857.61;108156;1253;60405;-66
2023/10/20 01:54:02;;;;;;;67.20;38.80;;;;;;;13.81;60.21;98854.30;108094;1254;72647;-66
2023/10/20 01:56:29;;;;;;;61.40;37.90;;;;;;;13.90;60.10;98858.81;108141;1255;70105;-66
2023/10/20 01:58:57;;;;;;;64.40;38.00;;;;;;;14.07;59.75;98852.80;108022;1253;72468;-66
2023/10/20 02:01:25;;;;;;;55.20;36.60;;;;;;;14.02;59.83;98851.27;108035;1254;60903;-66
2023/10/20 02:03:53;;;;;;;64.20;38.10;;;;;;;13.84;60.40;98848.98;108111;1253;60035;-66
2023/10/20 02:06:20;;;;;;;61.50;38.30;;;;;;;13.85;60.53;98851.54;108031;1253;73840;-66
2023/10/20 02:08:48;;;;;;;63.00;38.90;;;;;;;13.86;60.55;98849.91;107933;1257;69129;-65
2023/10/20 02:11:16;;;;;;;66.50;37.40;;;;;;;13.94;60.53;98845.83;108038;1259;72688;-66
2023/10/20 02:13:43;;;;;;;62.80;40.60;;;;;;;13.88;60.75;98846.09;108055;1257;60833;-66
2023/10/20 02:16:11;;;;;;;63.10;39.60;;;;;;;13.91;60.81;98845.10;108011;1253;60408;-67
2023/10/20 02:18:39;;;;;;;59.70;38.20;;;;;;;13.91;60.84;98842.50;107978;1259;73818;-66
2023/10/20 02:21:09;;;;;;;64.40;39.80;;;;;;;13.82;61.10;98844.88;108059;1259;67870;-66
2023/10/20 02:23:38;;;;;;;61.30;39.30;;;;;;;13.87;61.19;98848.44;108015;1254;72484;-65
2023/10/20 02:26:08;;;;;;;61.30;39.50;;;;;;;13.84;61.23;98848.48;107993;1254;60870;-65
2023/10/20 02:28:35;;;;;;;59.10;38.10;;;;;;;13.78;61.52;98842.73;108115;1253;60352;-66
2023/10/20 02:31:13;;;;;;;68.00;38.00;;;;;;;13.79;61.56;98835.20;108106;1252;73813;-66
2023/10/20 02:33:41;;;;;;;55.90;36.70;;;;;;;13.83;61.60;98832.30;107936;1255;69364;-66
2023/10/20 02:36:08;;;;;;;62.40;38.40;;;;;;;13.70;61.94;98828.79;108147;1257;72687;-66
2023/10/20 02:38:36;;;;;;;60.60;37.40;;;;;;;13.78;62.00;98824.90;108120;1260;60825;-65
2023/10/20 02:41:03;;;;;;;57.50;37.50;;;;;;;13.91;61.63;98819.05;108054;1252;61145;-66
2023/10/20 02:43:31;;;;;;;58.90;37.50;;;;;;;13.84;61.96;98818.27;108152;1251;73887;-67
2023/10/20 02:45:59;;;;;;;63.20;38.80;;;;;;;13.88;61.90;98818.55;108171;1251;69229;-66
2023/10/20 02:48:26;;;;;;;61.40;38.90;;;;;;;13.86;62.01;98820.27;108080;1257;71376;-67
2023/10/20 02:50:54;;;;;;;59.30;37.20;;;;;;;13.96;61.75;98815.16;108115;1251;59285;-64
2023/10/20 02:53:21;;;;;;;69.30;40.80;;;;;;;14.05;61.49;98816.04;108180;1251;60367;-65
2023/10/20 02:55:49;;;;;;;67.90;40.50;;;;;;;14.15;61.34;98814.34;108199;1257;74414;-66
2023/10/20 02:58:17;;;;;;;66.90;39.10;;;;;;;14.10;61.54;98811.70;108182;1256;70457;-66
2023/10/20 03:00:45;;;;;;;66.10;39.20;;;;;;;13.75;62.60;98813.29;108172;1251;71988;-64
2023/10/20 03:03:17;;;;;;;62.70;37.60;;;;;;;13.87;62.52;98814.21;108123;1251;60463;-65
2023/10/20 03:05:45;;;;;;;69.70;41.00;;;;;;;14.18;61.72;98811.80;108135;1251;59988;-65
2023/10/20 03:08:13;;;;;;;65.60;39.20;;;;;;;14.11;61.89;98811.81;108225;1256;73939;-65
2023/10/20 03:10:40;;;;;;;62.70;37.00;;;;;;;14.04;62.20;98810.11;108214;1251;69527;-65
2023/10/20 03:13:10;;;;;;;71.10;42.70;;;;;;;14.22;61.82;98801.94;108135;1254;72448;-66
2023/10/20 03:15:37;;;;;;;65.70;41.60;;;;;;;14.38;61.42;98798.65;108047;1254;60298;-66
2023/10/20 03:18:05;;;;;;;48.90;30.60;;;;;;;14.05;62.30;98800.04;108125;1254;60422;-66
2023/10/20 03:20:32;;;;;;;71.00;42.70;;;;;;;14.19;61.96;98803.22;108157;1254;73867;-67
2023/10/20 03:23:00;;;;;;;65.90;41.10;;;;;;;14.34;61.51;98797.38;108112;1253;70057;-66
2023/10/20 03:25:31;;;;;;;73.30;41.90;;;;;;;14.23;61.83;98797.27;108143;1253;73961;-66
2023/10/20 03:27:58;;;;;;;71.20;41.60;;;;;;;14.14;62.20;98787.04;108118;1254;60455;-64
2023/10/20 03:30:27;;;;;;;60.60;37.40;;;;;;;14.21;61.85;98779.27;108073;1254;60196;-62
2023/10/20 03:32:55;;;;;;;70.90;41.80;;;;;;;14.16;61.98;98780.90;108137;1253;74527;-63
2023/10/20 03:35:22;;;;;;;62.50;40.00;;;;;;;14.06;62.21;98776.63;108172;1254;68696;-64
2023/10/20 03:37:54;;;;;;;60.90;38.60;;;;;;;13.94;62.55;98766.62;108149;1256;71371;-64
2023/10/20 03:40:30;;;;;;;64.60;41.20;;;;;;;13.59;63.81;98766.42;108192;1254;60294;-67
2023/10/20 03:42:58;;;;;;;61.00;38.90;;;;;;;13.55;64.20;98763.92;108151;1252;60376;-65
2023/10/20 03:45:25;;;;;;;62.30;36.50;;;;;;;13.52;64.59;98759.71;108212;1254;73943;-65
2023/10/20 03:47:53;;;;;;;61.70;37.90;;;;;;;13.49;64.94;98761.52;108194;1254;69899;-66
2023/10/20 03:50:21;;;;;;;54.90;33.10;;;;;;;13.51;65.07;98762.39;107952;1254;72643;-66
2023/10/20 03:52:49;;;;;;;59.60;36.80;;;;;;;13.51;65.29;98764.53;108115;1254;61455;-66
2023/10/20 03:55:16;;;;;;;62.90;38.30;;;;;;;13.57;65.24;98761.98;108261;1254;59171;-66
2023/10/20 03:57:44;;;;;;;59.60;36.70;;;;;;;13.71;65.03;98762.05;108045;1254;73871;-67
2023/10/20 04:00:27;;;;;;;65.00;39.60;;;;;;;13.77;64.93;98757.92;108173;1254;68729;-65
2023/10/20 04:02:56;;;;;;;63.80;39.40;;;;;;;13.89;64.67;98763.44;108080;1254;72459;-66
2023/10/20 04:05:23;;;;;;;51.10;34.30;;;;;;;13.94;64.55;98760.77;108105;1257;60335;-66
2023/10/20 04:07:51;;;;;;;69.40;41.10;;;;;;;14.03;64.28;98763.06;108165;1255;60401;-66
2023/10/20 04:10:19;;;;;;;71.20;42.50;;;;;;;14.10;64.09;98762.74;108088;1252;73094;-66
2023/10/20 04:12:47;;;;;;;78.20;41.40;;;;;;;14.13;63.98;98761.70;108154;1254;70057;-66
2023/10/20 04:15:15;;;;;;;73.50;43.00;;;;;;;14.16;63.92;98765.53;108105;1253;72699;-66
2023/10/20 04:17:51;;;;;;;60.70;36.90;;;;;;;14.23;63.66;98763.55;108032;1254;60929;-66
2023/10/20 04:20:20;;;;;;;83.00;43.50;;;;;;;14.27;63.61;98757.27;108081;1253;60130;-66
2023/10/20 04:22:51;;;;;;;75.80;43.20;;;;;;;14.00;64.32;98761.73;108050;1254;72680;-66
2023/10/20 04:25:21;;;;;;;76.30;41.50;;;;;;;14.01;64.50;98756.52;108086;1254;69949;-66
2023/10/20 04:27:57;;;;;;;74.60;40.90;;;;;;;14.08;64.24;98758.69;108173;1254;71738;-65
2023/10/20 04:47:40;;;;;;;67.10;38.50;;;;;;;13.81;65.58;98769.45;108031;1254;60274;-65
2023/10/20 04:52:55;;;;;;;68.50;40.50;;;;;;;14.04;65.07;98775.02;108116;1254;70155;-66
2023/10/20 04:58:04;;;;;;;68.40;40.90;;;;;;;13.91;65.50;98781.30;108131;1254;60886;-65
2023/10/20 05:00:36;;;;;;;75.10;41.10;;;;;;;13.90;65.72;98779.42;108112;1254;60296;-66
2023/10/20 05:05:40;;;;;;;64.00;38.10;;;;;;;13.89;65.79;98771.37;108114;1254;70332;-66
2023/10/20 05:10:38;;;;;;;63.70;36.70;;;;;;;13.96;65.78;98765.71;108077;1254;60849;-66
2023/10/20 05:13:09;;;;;;;;;;;;;;;13.98;65.77;98758.66;108186;1254;60328;-66
2023/10/20 05:15:40;;;;;;;65.20;38.10;;;;;;;14.04;65.89;98755.44;108036;1254;73911;-66
2023/10/20 05:18:11;;;;;;;71.00;39.40;;;;;;;14.11;65.74;98748.98;108053;1253;70187;-66
2023/10/20 05:20:42;;;;;;;71.30;38.20;;;;;;;14.07;66.13;98745.18;108097;1254;71567;-66
2023/10/20 05:23:15;;;;;;;63.90;37.50;;;;;;;14.07;66.44;98738.83;108070;1253;60907;-67
2023/10/20 05:25:50;;;;;;;60.40;36.00;;;;;;;14.03;66.81;98736.29;108142;1257;60432;-67
2023/10/20 05:28:17;;;;;;;64.80;36.70;;;;;;;14.14;66.93;98726.48;108104;1257;73889;-66
2023/10/20 05:30:45;;;;;;;62.90;33.10;;;;;;;14.25;66.73;98718.02;108077;1253;69002;-66
2023/10/20 05:33:12;;;;;;;59.60;33.50;;;;;;;14.48;66.27;98723.27;108073;1253;72663;-66
2023/10/20 05:35:40;;;;;;;68.20;36.20;;;;;;;14.54;66.41;98714.66;108032;1254;60396;-67
2023/10/20 05:38:09;;;;;;;66.60;36.20;;;;;;;14.59;66.58;98710.64;108025;1254;60278;-66
2023/10/20 05:40:36;;;;;;;79.00;40.30;;;;;;;14.61;66.88;98703.77;108117;1253;72582;-67
2023/10/20 05:43:05;;;;;;;85.50;43.80;;;;;;;14.67;67.01;98701.13;108079;1253;70404;-67
2023/10/20 05:45:39;;;;;;;93.00;44.70;;;;;;;14.74;66.93;98697.27;108055;1254;72763;-66
2023/10/20 05:48:08;;;;;;;78.10;44.50;;;;;;;14.83;66.86;98689.15;108149;1253;60418;-70
2023/10/20 05:50:36;;;;;;;64.20;36.70;;;;;;;14.91;66.78;98690.27;108095;1253;60300;-67
2023/10/20 05:53:05;;;;;;;82.90;42.30;;;;;;;14.98;66.79;98694.00;108058;1253;73735;-67
2023/10/20 05:55:33;;;;;;;56.40;33.20;;;;;;;15.21;66.50;98708.27;108141;1253;69264;-66
2023/10/20 05:58:00;;;;;;;50.20;29.20;;;;;;;15.22;66.60;98712.61;108081;1254;72755;-66
2023/10/20 06:00:28;;;;;;;64.30;36.50;;;;;;;15.20;66.52;98710.08;108079;1254;60765;-67
2023/10/20 06:02:55;;;;;;;70.20;36.80;;;;;;;15.29;66.66;98702.70;108064;1253;61079;-66
2023/10/20 06:05:23;;;;;;;68.80;38.70;;;;;;;15.30;66.65;98705.77;108122;1252;72908;-67
2023/10/20 06:07:51;;;;;;;73.40;38.90;;;;;;;15.06;67.29;98706.80;108203;1254;70013;-66
2023/10/20 06:10:24;;;;;;;68.40;38.80;;;;;;;15.06;67.35;98701.67;108250;1253;71329;-66
2023/10/20 06:12:52;;;;;;;72.30;37.90;;;;;;;15.03;67.54;98691.64;108196;1253;60592;-66
2023/10/20 06:15:20;;;;;;;64.10;35.70;;;;;;;15.09;67.60;98687.14;108086;1253;60333;-66
2023/10/20 06:17:49;;;;;;;68.60;35.10;;;;;;;15.19;67.41;98684.23;108224;1252;74246;-65
2023/10/20 06:20:18;;;;;;;63.50;35.70;;;;;;;15.36;66.91;98681.99;108145;1253;70200;-66
2023/10/20 06:22:45;;;;;;;64.50;34.20;;;;;;;15.46;66.80;98680.98;108129;1253;71628;-66
2023/10/20 06:25:13;;;;;;;57.20;34.70;;;;;;;15.62;66.42;98681.64;108249;1253;60510;-67
2023/10/20 06:27:43;;;;;;;61.80;35.60;;;;;;;15.67;66.28;98692.22;108163;1252;60370;-66
2023/10/20 06:30:16;;;;;;;59.50;35.30;;;;;;;15.65;66.50;98692.02;108197;1253;73886;-66
2023/10/20 06:32:43;;;;;;;55.90;34.30;;;;;;;15.68;66.46;98689.83;108169;1253;68830;-66
2023/10/20 06:35:13;;;;;;;60.60;35.30;;;;;;;15.70;66.52;98684.05;108099;1254;72470;-66
2023/10/20 06:37:49;;;;;;;61.40;33.70;;;;;;;15.77;66.44;98674.29;108085;1252;62121;-66
2023/10/20 06:40:16;;;;;;;60.50;34.00;;;;;;;15.80;66.19;98665.38;108150;1253;59948;-64
2023/10/20 06:42:44;;;;;;;43.60;25.80;;;;;;;15.85;66.01;98667.96;108144;1253;72553;-66
2023/10/20 06:45:12;;;;;;;52.50;32.10;;;;;;;15.67;66.33;98677.58;108058;1253;70276;-66
2023/10/20 06:47:40;;;;;;;51.40;33.00;;;;;;;15.67;66.62;98679.11;108008;1254;71048;-67
2023/10/20 06:50:10;;;;;;;47.50;25.80;;;;;;;15.80;66.26;98677.95;108062;1253;61661;-66
2023/10/20 06:52:38;;;;;;;54.40;31.40;;;;;;;15.82;66.31;98681.01;108093;1254;60417;-67
2023/10/20 06:55:06;;;;;;;48.20;30.40;;;;;;;15.91;66.30;98681.33;108082;1253;74215;-66
2023/10/20 06:57:36;;;;;;;;;;;;;;;15.89;66.40;98680.77;108145;1253;70114;-66
2023/10/20 07:00:16;;;;;;;48.40;28.90;;;;;;;15.88;66.58;98678.36;108105;1254;72698;-65
2023/10/20 07:02:44;;;;;;;55.50;31.10;;;;;;;15.81;67.06;98684.19;108053;1257;61448;-66
2023/10/20 07:05:11;;;;;;;44.10;27.20;;;;;;;15.72;67.54;98682.66;108130;1253;60595;-66
2023/10/20 07:07:39;;;;;;;51.20;31.50;;;;;;;15.84;67.50;98683.08;108233;1253;73759;-65
2023/10/20 07:10:10;;;;;;;53.50;29.70;;;;;;;15.80;67.62;98679.38;108134;1257;69031;-66
2023/10/20 07:12:38;;;;;;;52.10;28.40;;;;;;;15.92;67.49;98673.56;108244;1253;70877;-66
2023/10/20 07:15:06;;;;;;;51.60;27.90;;;;;;;15.98;67.42;98674.85;108098;1253;61694;-66
2023/10/20 07:17:34;;;;;;;39.70;23.00;;;;;;;16.08;67.33;98673.50;108166;1253;60307;-66
2023/10/20 07:20:04;;;;;;;43.90;26.20;;;;;;;16.24;66.95;98666.21;108178;1253;73812;-67
2023/10/20 07:22:32;;;;;;;47.40;27.80;;;;;;;16.38;66.87;98665.73;108082;1254;70780;-66
2023/10/20 07:24:59;;;;;;;50.70;29.60;;;;;;;16.60;66.25;98659.22;108102;1253;72677;-66
2023/10/20 07:27:27;;;;;;;43.70;27.40;;;;;;;16.72;66.19;98661.08;108105;1253;60377;-66
2023/10/20 07:29:54;;;;;;;39.30;23.60;;;;;;;16.86;66.21;98660.98;108076;1253;58805;-65
2023/10/20 07:32:22;;;;;;;41.70;25.00;;;;;;;17.08;65.53;98665.79;108079;1253;72661;-66
2023/10/20 07:34:50;;;;;;;40.40;23.20;;;;;;;17.15;65.17;98663.08;108160;1253;70253;-65
2023/10/20 07:37:18;;;;;;;30.40;19.70;;;;;;;16.89;65.56;98660.13;108049;1253;72637;-64
2023/10/20 07:39:46;;;;;;;40.40;20.40;;;;;;;16.96;65.23;98662.35;108106;1252;61713;-66
2023/10/20 07:42:16;;;;;;;32.40;19.90;;;;;;;16.73;66.09;98670.73;108118;1251;60260;-66
2023/10/20 07:44:43;;;;;;;37.20;21.90;;;;;;;16.69;66.06;98670.92;108199;1251;71942;-67
2023/10/20 07:47:11;;;;;;;30.80;19.30;;;;;;;16.65;66.35;98669.27;108264;1251;71793;-66
2023/10/20 07:49:39;;;;;;;34.50;20.00;;;;;;;16.66;66.39;98675.40;108285;1251;72426;-64
2023/10/20 07:52:08;;;;;;;39.50;21.40;;;;;;;16.63;66.69;98675.17;108250;1251;60909;-66
2023/10/20 07:54:35;;;;;;;33.00;18.90;;;;;;;16.62;66.87;98671.14;108354;1251;59096;-66
2023/10/20 07:57:03;;;;;;;41.20;21.70;;;;;;;16.65;66.87;98673.17;108195;1251;74142;-66
2023/10/20 07:59:31;;;;;;;37.00;21.20;;;;;;;16.71;66.79;98674.42;108253;1251;72660;-66
2023/10/20 08:01:59;;;;;;;40.30;22.40;;;;;;;16.67;67.53;98681.39;108176;1253;71082;-66
2023/10/20 08:04:26;;;;;;;40.00;23.60;;;;;;;16.65;67.36;98686.61;108159;1251;62631;-66
2023/10/20 08:06:54;;;;;;;43.90;24.20;;;;;;;16.68;67.47;98694.88;108062;1251;59377;-67
2023/10/20 08:09:22;;;;;;;44.70;24.40;;;;;;;16.67;67.28;98697.61;108193;1251;73817;-67
2023/10/20 08:11:50;;;;;;;39.70;25.50;;;;;;;16.77;67.20;98699.64;108260;1251;70731;-66
2023/10/20 08:14:20;;;;;;;57.70;29.50;;;;;;;16.83;66.99;98690.83;108193;1253;71351;-66
2023/10/20 08:16:49;;;;;;;53.50;29.30;;;;;;;16.93;66.89;98686.74;108157;1251;61992;-67
2023/10/20 08:19:16;;;;;;;48.00;27.70;;;;;;;17.02;66.69;98685.08;108129;1256;60355;-67
2023/10/20 08:21:44;;;;;;;47.20;26.30;;;;;;;17.04;66.79;98682.98;108237;1251;72763;-67
2023/10/20 08:24:11;;;;;;;39.30;22.40;;;;;;;17.00;66.90;98684.73;108266;1251;68799;-65
2023/10/20 08:26:42;;;;;;;50.00;25.30;;;;;;;16.94;67.29;98687.05;108212;1251;71946;-66
2023/10/20 08:29:11;;;;;;;35.80;21.60;;;;;;;16.87;67.39;98679.64;108274;1251;60895;-66
2023/10/20 08:31:39;;;;;;;39.50;22.40;;;;;;;16.76;68.37;98675.94;108209;1251;60329;-67
2023/10/20 08:34:07;;;;;;;37.00;21.90;;;;;;;16.68;69.04;98675.42;108265;1251;72657;-66
2023/10/20 08:36:35;;;;;;;37.00;18.40;;;;;;;16.73;68.69;98673.36;108138;1251;69098;-67
2023/10/20 08:39:13;;;;;;;39.10;20.30;;;;;;;16.66;69.26;98676.48;108227;1253;73052;-66
2023/10/20 08:41:43;;;;;;;48.40;22.10;;;;;;;16.83;68.28;98673.75;108278;1251;60464;-66
2023/10/20 08:44:11;;;;;;;39.70;21.90;;;;;;;16.84;68.09;98672.82;108179;1251;60313;-65
2023/10/20 08:46:40;;;;;;;47.10;23.30;;;;;;;16.90;68.32;98675.66;108157;1251;73945;-66
2023/10/20 08:49:07;;;;;;;36.70;21.10;;;;;;;16.94;68.10;98675.32;108049;1257;70811;-66
2023/10/20 08:51:38;;;;;;;39.70;20.00;;;;;;;16.91;68.34;98667.55;108095;1253;71464;-66
2023/10/20 08:54:09;;;;;;;29.00;17.80;;;;;;;16.84;68.51;98662.02;108151;1251;60625;-66
2023/10/20 08:56:36;;;;;;;35.60;17.80;;;;;;;16.75;68.97;98657.95;108225;1251;59247;-66
2023/10/20 08:59:05;;;;;;;25.20;15.40;;;;;;;16.83;68.91;98657.45;108208;1251;73758;-66
2023/10/20 09:01:33;;;;;;;37.90;17.00;;;;;;;16.78;69.20;98663.91;108116;1251;71860;-67
2023/10/20 09:04:04;;;;;;;43.30;17.90;;;;;;;16.82;69.10;98665.55;108234;1253;72738;-67
2023/10/20 09:06:32;;;;;;;29.00;15.70;;;;;;;16.81;69.27;98673.23;108227;1251;61911;-67
2023/10/20 09:09:05;;;;;;;36.00;17.80;;;;;;;16.87;69.38;98685.14;108299;1251;60261;-66
2023/10/20 09:11:33;;;;;;;29.60;18.10;;;;;;;16.98;69.29;98694.11;108078;1251;73173;-66
2023/10/20 09:14:02;;;;;;;24.80;15.50;;;;;;;16.89;69.84;98694.88;108251;1251;71371;-66
2023/10/20 09:16:30;;;;;;;29.90;16.30;;;;;;;16.70;69.84;98691.39;108151;1251;72599;-66
2023/10/20 09:18:57;;;;;;;23.20;14.80;;;;;;;16.59;70.74;98694.20;108218;1252;60467;-66
2023/10/20 09:21:26;;;;;;;25.20;15.10;;;;;;;16.72;70.36;98691.89;108176;1251;60408;-69
2023/10/20 09:24:00;;;;;;;32.10;16.30;;;;;;;16.71;70.24;98690.95;108294;1251;76166;-66
2023/10/20 09:26:31;;;;;;;22.90;15.80;;;;;;;16.74;70.34;98692.23;108220;1251;69226;-67
2023/10/20 09:31:07;;;;;;;30.00;18.10;;;;;;;16.14;74.71;98688.17;104981;1289;600340;-66
2023/10/20 09:33:37;;;;;;;26.90;17.00;;;;;;;16.61;71.93;98678.30;107173;1267;60438;-66
2023/10/20 09:36:04;;;;;;;26.30;16.30;;;;;;;16.65;71.76;98675.83;107182;1264;60085;-69
2023/10/20 09:38:32;;;;;;;22.50;16.40;;;;;;;16.54;72.36;98675.83;107147;1264;72339;-67
2023/10/20 09:41:12;;;;;;;24.80;17.50;;;;;;;16.61;71.92;98674.19;107165;1264;70259;-66
2023/10/20 09:43:45;;;;;;;28.10;16.70;;;;;;;16.73;71.69;98675.17;107100;1264;148188;-67
2023/10/20 09:46:18;;;;;;;29.80;16.90;;;;;;;16.53;72.77;98679.70;107351;1267;60465;-66
2023/10/20 09:48:47;;;;;;;28.50;16.30;;;;;;;16.54;72.54;98679.58;107462;1260;62172;-66
2023/10/20 09:51:15;;;;;;;28.60;17.70;;;;;;;16.60;72.55;98685.84;107434;1261;74335;-67
2023/10/20 09:53:43;;;;;;;29.20;17.10;;;;;;;16.39;73.28;98687.92;107438;1260;69866;-67
2023/10/20 09:56:10;;;;;;;28.80;17.60;;;;;;;16.35;73.54;98688.45;107475;1261;73951;-66
2023/10/20 09:58:38;;;;;;;31.10;17.70;;;;;;;16.49;73.33;98679.15;107478;1260;61738;-66
2023/10/20 10:01:06;;;;;;;31.80;18.40;;;;;;;16.54;72.89;98681.89;107468;1261;62549;-67
2023/10/20 10:03:40;;;;;;;28.20;17.30;;;;;;;16.58;72.77;98680.14;108243;1251;73038;-67
2023/10/20 10:06:17;;;;;;;25.30;15.50;;;;;;;16.48;73.33;98680.77;108222;1251;70007;-66
2023/10/20 10:08:45;;;;;;;29.70;16.80;;;;;;;16.51;73.03;98680.67;108245;1250;71391;-67
2023/10/20 10:11:26;;;;;;;30.60;16.70;;;;;;;16.53;73.15;98679.79;108292;1250;62746;-67
2023/10/20 10:14:01;;;;;;;26.50;16.80;;;;;;;16.61;73.02;98678.66;108193;1251;59972;-66
2023/10/20 10:16:29;;;;;;;27.60;17.90;;;;;;;16.74;72.56;98678.77;108186;1251;73003;-66
2023/10/20 10:19:09;;;;;;;25.20;16.50;;;;;;;16.80;72.58;98674.88;108227;1251;72903;-66
2023/10/20 10:21:40;;;;;;;28.00;16.90;;;;;;;16.77;72.82;98679.60;108175;1256;71108;-67
2023/10/20 10:24:12;;;;;;;32.50;19.00;;;;;;;16.93;72.01;98668.14;108117;1254;60366;-66
2023/10/20 10:27:06;;;;;;;25.30;16.60;;;;;;;17.10;71.48;98667.02;108051;1252;60056;-67
2023/10/20 10:29:53;;;;;;;26.00;17.00;;;;;;;17.07;71.60;98670.82;108195;1254;73147;-67
2023/10/20 10:32:21;;;;;;;29.10;18.50;;;;;;;17.12;71.50;98669.71;108138;1253;70600;-67
2023/10/20 10:34:53;;;;;;;28.40;18.70;;;;;;;16.87;72.45;98670.06;108151;1252;71477;-67
2023/10/20 10:37:34;;;;;;;28.80;17.60;;;;;;;16.95;72.10;98667.05;108048;1254;62302;-67
2023/10/20 10:40:08;;;;;;;28.00;17.10;;;;;;;16.91;72.32;98675.88;108051;1253;59635;-67
2023/10/20 10:42:44;;;;;;;34.80;17.70;;;;;;;16.86;72.73;98674.57;108087;1253;73156;-67
2023/10/20 10:45:23;;;;;;;33.60;20.70;;;;;;;16.89;72.36;98668.09;108155;1254;70074;-67
2023/10/20 10:48:11;;;;;;;31.70;19.10;;;;;;;17.05;72.12;98665.54;108095;1253;73673;-67
2023/10/20 10:50:40;;;;;;;30.70;19.60;;;;;;;16.96;72.83;98669.15;108113;1252;63901;-67
2023/10/20 10:53:08;;;;;;;37.80;20.60;;;;;;;17.04;72.54;98674.05;108131;1253;61351;-67
2023/10/20 10:55:35;;;;;;;36.40;22.70;;;;;;;16.93;73.02;98680.20;108114;1256;72396;-67
2023/10/20 10:58:10;;;;;;;33.30;20.20;;;;;;;16.78;73.79;98677.52;108115;1253;69796;-67
2023/10/20 11:00:38;;;;;;;34.60;18.50;;;;;;;16.76;73.70;98675.94;108290;1256;73385;-67
2023/10/20 11:03:06;;;;;;;31.80;17.80;;;;;;;16.70;74.13;98675.42;108050;1251;62331;-66
2023/10/20 11:05:33;;;;;;;31.80;20.80;;;;;;;16.71;74.39;98674.27;108137;1251;60025;-67
2023/10/20 11:08:05;;;;;;;26.70;17.50;;;;;;;16.84;73.50;98676.34;108091;1251;73147;-66
2023/10/20 11:10:34;;;;;;;31.50;19.20;;;;;;;16.75;74.43;98683.35;108046;1256;72648;-66
2023/10/20 11:13:07;;;;;;;30.90;19.40;;;;;;;16.74;74.60;98679.30;108144;1251;72047;-67
2023/10/20 11:15:35;;;;;;;28.20;18.10;;;;;;;16.72;74.55;98682.00;108200;1251;60432;-67
2023/10/20 11:18:04;;;;;;;29.30;18.80;;;;;;;16.69;74.90;98671.75;108187;1251;59522;-67
2023/10/20 11:20:37;;;;;;;29.80;18.70;;;;;;;16.69;74.88;98668.60;108232;1251;73498;-67
2023/10/20 11:23:09;;;;;;;33.90;19.40;;;;;;;16.84;74.49;98671.75;108201;1251;68992;-67
2023/10/20 11:25:36;;;;;;;29.10;17.30;;;;;;;16.86;74.50;98674.02;108181;1253;72523;-66
2023/10/20 11:28:05;;;;;;;30.00;18.10;;;;;;;16.83;74.61;98673.55;108177;1251;60404;-67
2023/10/20 11:30:38;;;;;;;28.50;17.00;;;;;;;16.74;75.13;98674.74;108118;1251;60046;-67
2023/10/20 11:33:08;;;;;;;31.20;19.00;;;;;;;16.82;74.83;98673.02;108204;1251;75180;-66
2023/10/20 11:35:39;;;;;;;32.30;18.20;;;;;;;17.02;73.94;98675.16;108110;1251;69177;-67
2023/10/20 11:38:07;;;;;;;31.70;17.00;;;;;;;17.03;74.07;98674.36;108185;1251;74924;-67
2023/10/20 11:40:34;;;;;;;27.30;18.20;;;;;;;17.21;73.12;98676.02;108085;1253;60845;-67
2023/10/20 11:43:01;;;;;;;35.50;18.50;;;;;;;17.25;73.12;98671.53;108080;1251;59592;-66
2023/10/20 11:45:29;;;;;;;33.50;19.40;;;;;;;17.24;73.28;98671.09;108105;1251;73404;-67
2023/10/20 11:47:58;;;;;;;31.60;18.60;;;;;;;17.34;72.48;98676.04;108094;1251;72661;-67